Terminal Aerodrome Forecast
Issued by NWS Paducah, KY

Home | Current Version | Previous Version | Text Only | Print | Product List | Glossary Off
Versions: 1 2 3 4 5 6 7 8 9 10 11 12 13

000
FTUS43 KPAH 281121
TAFEVV
TAF
KEVV 281121Z 2812/0112 18009G15KT P6SM -SHRA VCTS BKN025CB
      TEMPO 2812/2816 3SM TSRA BR OVC015CB
     FM281600 20013G25KT P6SM SCT025 BKN035 PROB30 0102/0106
      VRB15G30KT 4SM TSRA BR BKN020CB
     FM010900 21014G24KT P6SM BKN050=

USA.gov is the U.S. government's official web portal to all federal, state and local government web resources and services.